Time;durP1;ratioP1;P1;durP2;ratioP2;P2;SDS_P1;SDS_P2;PMS_P1;PMS_P2;Temp;Humidity;BMP_temperature;BMP_pressure;BME280_temperature;BME280_humidity;BME280_pressure;Samples;Min_cycle;Max_cycle;Signal;HPM_P1;HPM_P2
2021/09/06 00:01:46;;;;;;;8.40;7.80;;;14.00;99.90;;;;;;4986768;28;20635;-90
2021/09/06 00:04:15;;;;;;;10.00;8.20;;;14.00;99.90;;;;;;4992659;28;21242;-90
2021/09/06 00:06:42;;;;;;;8.90;8.00;;;14.00;99.90;;;;;;4983193;28;20625;-90
2021/09/06 00:09:09;;;;;;;8.03;7.33;;;13.90;99.90;;;;;;4970840;28;20640;-89
2021/09/06 00:11:36;;;;;;;8.87;8.07;;;13.90;99.90;;;;;;4990993;28;20655;-91
2021/09/06 00:14:04;;;;;;;8.90;8.10;;;13.80;99.90;;;;;;4980484;28;20621;-89
2021/09/06 00:16:31;;;;;;;8.17;7.43;;;13.80;99.90;;;;;;4989736;28;20644;-89
2021/09/06 00:18:57;;;;;;;8.27;7.67;;;13.80;99.90;;;;;;4990511;28;20617;-88
2021/09/06 00:21:26;;;;;;;8.80;8.20;;;13.80;99.90;;;;;;4990796;28;20664;-88
2021/09/06 00:23:52;;;;;;;8.83;8.13;;;13.80;99.90;;;;;;4988404;28;20629;-90
2021/09/06 00:26:19;;;;;;;9.10;8.40;;;13.70;99.90;;;;;;4973909;28;20982;-89
2021/09/06 00:28:46;;;;;;;8.57;7.73;;;13.80;99.90;;;;;;4981513;28;20629;-89
2021/09/06 00:31:15;;;;;;;9.67;8.97;;;13.70;99.90;;;;;;4987940;28;21036;-88
2021/09/06 00:33:42;;;;;;;9.50;8.70;;;13.60;99.90;;;;;;4980678;28;20625;-89
2021/09/06 00:36:09;;;;;;;9.43;8.53;;;13.60;99.90;;;;;;4984715;28;21127;-89
2021/09/06 00:38:39;;;;;;;8.90;8.20;;;13.60;99.90;;;;;;4990714;28;20726;-88
2021/09/06 00:41:06;;;;;;;8.73;7.93;;;13.50;99.90;;;;;;4989413;28;20689;-89
2021/09/06 00:43:33;;;;;;;8.80;8.10;;;13.50;99.90;;;;;;4990700;28;20620;-89
2021/09/06 00:46:00;;;;;;;12.07;8.30;;;13.50;99.90;;;;;;4993588;28;20692;-90
2021/09/06 00:48:27;;;;;;;9.63;8.83;;;13.50;99.90;;;;;;4989947;28;20637;-88
2021/09/06 00:50:55;;;;;;;9.63;8.73;;;13.50;99.90;;;;;;4988433;28;21099;-89
2021/09/06 00:53:22;;;;;;;9.80;8.83;;;13.50;99.90;;;;;;4993019;28;20682;-88
2021/09/06 00:55:51;;;;;;;12.30;11.03;;;13.50;99.90;;;;;;4983184;28;20622;-88
2021/09/06 00:58:18;;;;;;;9.70;9.00;;;13.40;99.90;;;;;;4983358;28;20609;-88
2021/09/06 01:00:46;;;;;;;10.37;9.50;;;13.40;99.90;;;;;;4987619;28;20652;-88
2021/09/06 01:03:13;;;;;;;10.00;9.10;;;13.40;99.90;;;;;;4991922;28;21297;-90
2021/09/06 01:05:39;;;;;;;10.40;9.50;;;13.30;99.90;;;;;;4990978;28;20667;-89
2021/09/06 01:08:06;;;;;;;9.60;8.83;;;13.30;99.90;;;;;;4989073;28;20635;-88
2021/09/06 01:10:33;;;;;;;9.17;8.57;;;13.30;99.90;;;;;;4979869;28;21251;-89
2021/09/06 01:13:02;;;;;;;10.50;9.70;;;13.20;99.90;;;;;;4986421;28;20639;-89
2021/09/06 01:15:28;;;;;;;10.50;9.63;;;13.20;99.90;;;;;;4987040;28;20645;-89
2021/09/06 01:17:55;;;;;;;9.40;8.50;;;13.30;99.90;;;;;;4983793;28;20632;-89
2021/09/06 01:20:22;;;;;;;11.27;10.00;;;13.30;99.90;;;;;;4992913;28;20645;-89
2021/09/06 01:22:50;;;;;;;10.10;9.30;;;13.20;99.90;;;;;;4995249;28;20632;-89
2021/09/06 01:25:20;;;;;;;9.90;9.00;;;13.20;99.90;;;;;;5002558;28;20679;-89
2021/09/06 01:27:48;;;;;;;10.43;9.63;;;13.20;99.90;;;;;;4995132;28;20627;-89
2021/09/06 01:30:16;;;;;;;9.97;9.00;;;13.20;99.90;;;;;;4992853;28;21236;-89
2021/09/06 01:32:43;;;;;;;9.17;8.53;;;13.20;99.90;;;;;;4996854;28;20619;-89
2021/09/06 01:35:10;;;;;;;9.47;8.77;;;13.20;99.90;;;;;;4985454;28;21164;-89
2021/09/06 01:37:38;;;;;;;9.33;8.63;;;13.10;99.90;;;;;;4993138;28;20651;-90
2021/09/06 01:40:06;;;;;;;9.20;8.50;;;13.10;99.90;;;;;;4989649;28;20661;-89
2021/09/06 01:42:33;;;;;;;9.93;9.03;;;13.00;99.90;;;;;;4992461;28;20639;-89
2021/09/06 01:45:02;;;;;;;9.50;8.80;;;12.90;99.90;;;;;;4986833;28;20668;-88
2021/09/06 01:47:29;;;;;;;10.83;10.00;;;13.00;99.90;;;;;;4991393;28;21170;-89
2021/09/06 01:49:57;;;;;;;10.47;9.57;;;12.90;99.90;;;;;;4989850;28;20997;-89
2021/09/06 01:52:23;;;;;;;10.23;9.43;;;12.90;99.90;;;;;;4987890;28;20656;-89
2021/09/06 01:54:50;;;;;;;9.70;9.10;;;12.90;99.90;;;;;;4989932;28;20633;-89
2021/09/06 01:57:17;;;;;;;10.90;10.00;;;13.00;99.90;;;;;;4986149;28;20734;-88
2021/09/06 01:59:44;;;;;;;10.80;10.00;;;12.90;99.90;;;;;;4969429;28;20668;-88
2021/09/06 02:02:12;;;;;;;9.80;9.10;;;12.90;99.90;;;;;;4985139;28;21198;-89
2021/09/06 02:04:39;;;;;;;11.07;10.00;;;12.90;99.90;;;;;;4989310;28;20672;-88
2021/09/06 02:07:07;;;;;;;10.13;9.13;;;12.80;99.90;;;;;;5000697;28;20643;-89
2021/09/06 02:09:34;;;;;;;9.97;9.17;;;12.80;99.90;;;;;;4984821;28;22150;-89
2021/09/06 02:12:02;;;;;;;10.20;9.50;;;12.80;99.90;;;;;;4993960;28;20635;-89
2021/09/06 02:14:29;;;;;;;11.73;10.83;;;12.80;99.90;;;;;;4994608;28;21007;-88
2021/09/06 02:16:56;;;;;;;10.83;10.10;;;12.80;99.90;;;;;;4990747;28;20639;-89
2021/09/06 02:19:24;;;;;;;10.93;10.00;;;12.70;99.90;;;;;;4985160;28;20643;-90
2021/09/06 02:21:51;;;;;;;11.10;10.20;;;12.60;99.90;;;;;;4994577;28;20629;-88
2021/09/06 02:24:18;;;;;;;10.80;10.00;;;12.60;99.90;;;;;;4986192;28;20625;-90
2021/09/06 02:26:45;;;;;;;10.30;9.33;;;12.50;99.90;;;;;;4987695;28;20616;-89
2021/09/06 02:29:12;;;;;;;10.97;10.10;;;12.50;99.90;;;;;;4983371;28;20629;-89
2021/09/06 02:31:39;;;;;;;10.50;9.60;;;12.50;99.90;;;;;;4989313;28;20616;-89
2021/09/06 02:34:06;;;;;;;10.03;9.33;;;12.50;99.90;;;;;;4977485;28;20649;-88
2021/09/06 02:36:34;;;;;;;11.23;10.40;;;12.50;99.90;;;;;;4972665;28;21187;-89
2021/09/06 02:39:01;;;;;;;10.63;9.90;;;12.50;99.90;;;;;;4988162;28;20646;-89
2021/09/06 02:41:28;;;;;;;10.40;9.40;;;12.50;99.90;;;;;;4993795;28;20661;-90
2021/09/06 02:43:55;;;;;;;10.80;10.00;;;12.40;99.90;;;;;;4986398;28;20621;-89
2021/09/06 02:46:22;;;;;;;10.40;9.47;;;12.40;99.90;;;;;;4991395;28;20672;-89
2021/09/06 02:48:49;;;;;;;11.90;10.80;;;12.40;99.90;;;;;;4982025;28;20629;-90
2021/09/06 02:51:16;;;;;;;11.40;10.60;;;12.40;99.90;;;;;;4995541;28;20667;-90
2021/09/06 02:53:44;;;;;;;11.40;10.40;;;12.40;99.90;;;;;;4973626;28;22307;-90
2021/09/06 02:56:11;;;;;;;11.03;10.00;;;12.40;99.90;;;;;;4987044;28;20621;-89
2021/09/06 02:58:38;;;;;;;10.40;9.60;;;12.30;99.90;;;;;;4992589;28;20620;-89
2021/09/06 03:01:05;;;;;;;10.43;9.60;;;12.30;99.90;;;;;;4987976;28;20668;-89
2021/09/06 03:03:31;;;;;;;10.97;10.03;;;12.30;99.90;;;;;;4994187;28;21257;-89
2021/09/06 03:05:59;;;;;;;12.57;11.53;;;12.30;99.90;;;;;;4988256;28;20663;-89
2021/09/06 03:08:26;;;;;;;10.67;9.87;;;12.30;99.90;;;;;;4995789;28;20648;-90
2021/09/06 03:10:54;;;;;;;11.03;10.13;;;12.30;99.90;;;;;;4988786;28;20656;-88
2021/09/06 03:13:21;;;;;;;10.40;9.60;;;12.20;99.90;;;;;;4985277;28;20624;-90
2021/09/06 03:15:47;;;;;;;10.87;9.87;;;12.20;99.90;;;;;;4986642;28;20622;-89
2021/09/06 03:18:14;;;;;;;11.17;10.20;;;12.20;99.90;;;;;;4969023;28;20633;-89
2021/09/06 03:20:41;;;;;;;11.60;10.40;;;12.20;99.90;;;;;;4988574;28;20656;-89
2021/09/06 03:23:08;;;;;;;12.10;11.10;;;12.10;99.90;;;;;;4985264;28;20636;-90
2021/09/06 03:25:34;;;;;;;10.70;9.90;;;12.20;99.90;;;;;;4984378;28;20675;-88
2021/09/06 03:28:03;;;;;;;10.80;9.80;;;12.10;99.90;;;;;;4989031;28;21111;-89
2021/09/06 03:30:30;;;;;;;10.60;9.90;;;12.20;99.90;;;;;;4985204;28;21061;-88
2021/09/06 03:32:57;;;;;;;10.50;9.80;;;12.20;99.90;;;;;;4971175;28;20621;-89
2021/09/06 03:35:23;;;;;;;10.57;9.67;;;12.10;99.90;;;;;;4991489;28;20616;-89
2021/09/06 03:37:50;;;;;;;11.53;10.53;;;12.10;99.90;;;;;;4990652;28;20620;-89
2021/09/06 03:40:17;;;;;;;12.07;11.17;;;12.10;99.90;;;;;;4997403;28;21044;-89
2021/09/06 03:42:44;;;;;;;10.80;9.90;;;11.90;99.90;;;;;;4991439;28;20875;-89
2021/09/06 03:45:13;;;;;;;11.50;10.40;;;11.90;99.90;;;;;;4963740;28;20696;-90
2021/09/06 03:47:40;;;;;;;11.33;10.47;;;11.90;99.90;;;;;;4983137;28;20951;-89
2021/09/06 03:50:07;;;;;;;10.73;10.03;;;11.90;99.90;;;;;;4990285;28;20660;-89
2021/09/06 03:52:34;;;;;;;11.47;10.53;;;11.90;99.90;;;;;;4990532;28;20644;-88
2021/09/06 03:55:01;;;;;;;10.80;10.00;;;11.90;99.90;;;;;;4990104;28;20639;-89
2021/09/06 03:57:28;;;;;;;10.93;9.93;;;11.90;99.90;;;;;;4993834;28;20633;-89
2021/09/06 03:59:54;;;;;;;11.27;10.33;;;11.90;99.90;;;;;;4991131;28;21131;-89
2021/09/06 04:02:23;;;;;;;11.30;10.40;;;11.90;99.90;;;;;;4990658;28;20630;-89
2021/09/06 04:04:50;;;;;;;12.07;11.17;;;11.80;99.90;;;;;;4988227;28;21173;-89
2021/09/06 04:07:17;;;;;;;11.70;10.70;;;11.70;99.90;;;;;;4991756;28;21175;-89
2021/09/06 04:09:44;;;;;;;11.00;10.20;;;11.80;99.90;;;;;;5010041;28;20616;-88
2021/09/06 04:12:17;;;;;;;11.20;10.20;;;11.80;99.90;;;;;;4989888;28;20631;-89
2021/09/06 04:14:44;;;;;;;11.93;10.70;;;11.70;99.90;;;;;;4987910;28;20631;-90
2021/09/06 04:17:11;;;;;;;11.47;10.67;;;11.70;99.90;;;;;;4990098;28;20719;-89
2021/09/06 04:19:39;;;;;;;11.33;10.43;;;11.60;99.90;;;;;;4991607;28;20647;-89
2021/09/06 04:22:06;;;;;;;10.90;10.10;;;11.60;99.90;;;;;;4988550;28;20610;-89
2021/09/06 04:24:33;;;;;;;12.43;11.33;;;11.60;99.90;;;;;;4992279;28;20629;-89
2021/09/06 04:27:00;;;;;;;11.57;10.60;;;11.60;99.90;;;;;;4988812;28;20674;-89
2021/09/06 04:29:27;;;;;;;12.17;11.27;;;11.60;99.90;;;;;;4997913;28;20667;-89
2021/09/06 04:31:55;;;;;;;12.70;11.70;;;11.60;99.90;;;;;;4991942;28;21059;-89
2021/09/06 04:34:21;;;;;;;12.53;11.47;;;11.50;99.90;;;;;;5002926;28;20612;-89
2021/09/06 04:36:50;;;;;;;13.13;12.13;;;11.50;99.90;;;;;;4997589;28;20625;-88
2021/09/06 04:39:16;;;;;;;11.90;11.00;;;11.50;99.90;;;;;;4999688;28;20635;-88
2021/09/06 04:41:43;;;;;;;11.93;11.07;;;11.40;99.90;;;;;;5000083;28;20617;-89
2021/09/06 04:44:10;;;;;;;10.53;9.73;;;11.40;99.90;;;;;;4976798;28;20634;-89
2021/09/06 04:46:38;;;;;;;13.53;12.30;;;11.40;99.90;;;;;;4999951;28;20744;-89
2021/09/06 04:49:06;;;;;;;12.20;11.40;;;11.40;99.90;;;;;;4979131;28;20625;-88
2021/09/06 04:51:33;;;;;;;12.43;11.47;;;11.50;99.90;;;;;;4986918;28;20664;-89
2021/09/06 04:54:01;;;;;;;12.57;11.57;;;11.50;99.90;;;;;;4984467;28;20633;-89
2021/09/06 04:56:28;;;;;;;12.57;11.37;;;11.50;99.90;;;;;;4984651;28;20775;-89
2021/09/06 04:58:54;;;;;;;13.70;12.40;;;11.40;99.90;;;;;;4988301;28;20621;-90
2021/09/06 05:01:21;;;;;;;12.07;11.17;;;11.40;99.90;;;;;;4984100;28;20644;-89
2021/09/06 05:03:48;;;;;;;11.97;10.97;;;11.30;99.90;;;;;;4987946;28;21169;-88
2021/09/06 05:06:15;;;;;;;13.00;11.80;;;11.30;99.90;;;;;;4990070;28;20656;-89
2021/09/06 05:08:42;;;;;;;13.93;12.73;;;11.40;99.90;;;;;;5002529;28;21170;-89
2021/09/06 05:11:10;;;;;;;11.93;11.10;;;11.30;99.90;;;;;;4996449;28;20637;-88
2021/09/06 05:13:37;;;;;;;12.23;11.33;;;11.40;99.90;;;;;;4970606;28;20640;-90
2021/09/06 05:16:05;;;;;;;12.83;11.93;;;11.40;99.90;;;;;;4984960;28;20648;-89
2021/09/06 05:18:32;;;;;;;14.47;12.20;;;11.40;99.90;;;;;;4980711;28;20633;-89
2021/09/06 05:20:58;;;;;;;13.87;12.83;;;11.50;99.90;;;;;;4989815;28;20645;-89
2021/09/06 05:23:25;;;;;;;13.20;12.10;;;11.60;99.90;;;;;;4984329;28;21578;-88
2021/09/06 05:25:53;;;;;;;14.97;13.50;;;11.60;99.90;;;;;;4991807;28;20671;-88
2021/09/06 05:28:21;;;;;;;13.83;12.73;;;11.60;99.90;;;;;;4990646;28;20624;-89
2021/09/06 05:30:48;;;;;;;13.83;12.83;;;11.60;99.90;;;;;;4987302;28;20686;-88
2021/09/06 05:33:15;;;;;;;14.77;13.67;;;11.70;99.90;;;;;;4986048;28;21163;-89
2021/09/06 05:35:42;;;;;;;13.40;12.50;;;11.70;99.90;;;;;;4989502;28;21209;-89
2021/09/06 05:38:08;;;;;;;13.43;12.50;;;11.80;99.90;;;;;;4986569;28;20614;-89
2021/09/06 05:40:35;;;;;;;13.70;12.60;;;11.80;99.90;;;;;;4994917;28;20658;-89
2021/09/06 05:43:04;;;;;;;12.73;11.70;;;11.90;99.90;;;;;;4988402;28;20621;-88
2021/09/06 05:45:33;;;;;;;12.80;11.80;;;11.80;99.90;;;;;;4985844;28;21173;-89
2021/09/06 05:48:00;;;;;;;13.50;12.40;;;11.90;99.90;;;;;;4969444;28;20660;-89
2021/09/06 05:50:27;;;;;;;12.90;11.60;;;12.00;99.90;;;;;;4988982;28;20666;-88
2021/09/06 05:52:54;;;;;;;13.27;12.07;;;12.00;99.90;;;;;;4965279;28;20630;-88
2021/09/06 05:55:20;;;;;;;12.93;11.83;;;12.10;99.90;;;;;;4990975;28;20628;-88
2021/09/06 05:57:47;;;;;;;13.70;12.53;;;12.20;99.90;;;;;;4982925;28;20634;-88
2021/09/06 06:00:14;;;;;;;13.80;12.70;;;12.30;99.90;;;;;;4986462;28;20664;-88
2021/09/06 06:02:45;;;;;;;15.13;13.63;;;12.40;99.90;;;;;;4984769;28;20627;-88
2021/09/06 06:05:13;;;;;;;13.80;12.80;;;12.60;99.90;;;;;;4982482;28;20704;-90
2021/09/06 06:07:39;;;;;;;14.80;13.40;;;12.70;99.90;;;;;;4989231;28;21081;-88
2021/09/06 06:10:07;;;;;;;15.63;14.30;;;12.80;99.90;;;;;;4980644;28;20661;-88
2021/09/06 06:12:33;;;;;;;13.80;12.60;;;12.80;99.90;;;;;;4987364;28;20632;-89
2021/09/06 06:15:00;;;;;;;14.40;13.17;;;13.00;99.90;;;;;;4990127;28;20634;-88
2021/09/06 06:17:27;;;;;;;25.63;13.33;;;13.10;99.90;;;;;;4990552;28;20635;-89
2021/09/06 06:19:55;;;;;;;15.37;14.07;;;13.20;99.90;;;;;;4990526;28;20654;-88
2021/09/06 06:22:22;;;;;;;16.70;14.93;;;13.30;99.90;;;;;;4974602;28;20641;-88
2021/09/06 06:24:50;;;;;;;14.77;13.47;;;13.30;99.90;;;;;;4978258;28;20727;-89
2021/09/06 06:27:17;;;;;;;14.03;12.10;;;13.40;99.90;;;;;;4977371;28;20688;-88
2021/09/06 06:29:43;;;;;;;12.37;11.40;;;13.40;99.90;;;;;;4995216;28;21185;-88
2021/09/06 06:32:10;;;;;;;13.27;11.97;;;13.50;99.90;;;;;;4993267;28;20632;-88
2021/09/06 06:34:37;;;;;;;13.43;12.23;;;13.50;99.90;;;;;;4990510;28;20623;-90
2021/09/06 06:37:06;;;;;;;13.63;12.53;;;13.50;99.90;;;;;;4994490;28;20636;-89
2021/09/06 06:39:33;;;;;;;12.10;11.03;;;13.60;99.90;;;;;;4988636;28;20647;-90
2021/09/06 06:42:00;;;;;;;11.93;10.93;;;13.70;99.90;;;;;;4990903;28;20637;-90
2021/09/06 06:44:26;;;;;;;12.30;11.20;;;13.80;99.90;;;;;;4993989;28;20637;-89
2021/09/06 06:46:53;;;;;;;12.77;11.73;;;13.80;99.90;;;;;;4986701;28;20665;-89
2021/09/06 06:49:21;;;;;;;12.40;11.30;;;13.90;99.90;;;;;;4988177;28;20617;-90
2021/09/06 06:51:48;;;;;;;12.63;11.30;;;14.10;99.90;;;;;;4986708;28;20640;-89
2021/09/06 06:54:16;;;;;;;11.93;10.73;;;14.20;99.90;;;;;;4992993;28;20647;-89
2021/09/06 06:56:43;;;;;;;12.03;11.00;;;14.40;99.90;;;;;;4985509;28;20631;-89
2021/09/06 06:59:10;;;;;;;12.27;11.27;;;14.40;99.90;;;;;;4991339;28;20620;-89
2021/09/06 07:01:37;;;;;;;11.97;10.80;;;14.60;99.90;;;;;;4987424;28;20644;-88
2021/09/06 07:04:04;;;;;;;13.37;12.00;;;14.70;99.90;;;;;;4988941;28;20642;-88
2021/09/06 07:06:31;;;;;;;12.47;11.17;;;14.90;99.90;;;;;;4987145;28;20675;-90
2021/09/06 07:08:57;;;;;;;13.83;10.93;;;15.00;99.90;;;;;;4987351;28;20709;-88
2021/09/06 07:11:26;;;;;;;13.03;11.83;;;15.10;99.90;;;;;;4972992;28;21346;-89
2021/09/06 07:13:52;;;;;;;12.73;11.60;;;15.30;99.90;;;;;;4986747;28;21195;-89
2021/09/06 07:16:19;;;;;;;13.13;10.63;;;15.40;99.90;;;;;;4989235;28;20631;-89
2021/09/06 07:18:46;;;;;;;12.20;10.50;;;15.40;99.90;;;;;;4992839;28;20611;-89
2021/09/06 07:21:13;;;;;;;16.23;12.87;;;15.60;99.90;;;;;;4987752;28;20687;-89
2021/09/06 07:23:40;;;;;;;12.30;11.20;;;15.70;99.90;;;;;;4994213;28;20631;-88
2021/09/06 07:26:06;;;;;;;12.30;11.13;;;15.80;99.90;;;;;;4989532;28;20640;-89
2021/09/06 07:28:34;;;;;;;15.03;11.93;;;16.00;99.90;;;;;;4985032;28;20637;-89
2021/09/06 07:31:01;;;;;;;11.70;10.60;;;16.20;99.90;;;;;;4984507;28;20660;-89
2021/09/06 07:33:28;;;;;;;12.17;10.97;;;16.40;99.90;;;;;;4992413;28;20655;-89
2021/09/06 07:35:55;;;;;;;13.20;11.93;;;16.70;99.90;;;;;;4987528;28;20637;-89
2021/09/06 07:38:23;;;;;;;11.30;10.27;;;16.70;99.90;;;;;;4991020;28;20632;-89
2021/09/06 07:40:50;;;;;;;11.27;10.37;;;16.80;99.90;;;;;;4988639;28;20652;-89
2021/09/06 07:43:16;;;;;;;11.47;10.37;;;17.00;99.90;;;;;;4988980;28;20639;-89
2021/09/06 07:45:46;;;;;;;11.33;10.30;;;17.10;99.90;;;;;;4990536;28;20970;-89
2021/09/06 07:48:13;;;;;;;10.67;9.87;;;17.20;99.90;;;;;;4984277;28;21344;-89
2021/09/06 07:50:40;;;;;;;11.60;10.50;;;17.30;99.90;;;;;;4990576;28;20651;-89
2021/09/06 07:53:07;;;;;;;11.83;10.73;;;17.40;99.90;;;;;;4988824;28;20636;-90
2021/09/06 07:55:34;;;;;;;10.87;9.77;;;17.50;99.90;;;;;;4989747;28;20652;-90
2021/09/06 07:58:01;;;;;;;10.93;9.83;;;17.70;99.90;;;;;;4989924;28;21007;-90
2021/09/06 08:00:28;;;;;;;10.07;9.20;;;17.70;99.90;;;;;;4995231;28;20793;-90
2021/09/06 08:02:56;;;;;;;11.37;9.80;;;17.80;99.90;;;;;;4994146;28;21207;-90
2021/09/06 08:05:25;;;;;;;10.13;9.17;;;17.90;99.90;;;;;;4983654;28;20628;-89
2021/09/06 08:07:52;;;;;;;10.37;9.47;;;18.10;99.90;;;;;;4969855;28;20664;-90
2021/09/06 08:10:19;;;;;;;9.70;8.90;;;18.30;99.90;;;;;;4982868;28;21245;-90
2021/09/06 08:12:46;;;;;;;9.33;8.53;;;18.60;99.90;;;;;;4995833;28;20658;-89
2021/09/06 08:15:13;;;;;;;11.17;10.07;;;18.60;99.90;;;;;;4991960;28;20629;-90
2021/09/06 08:17:40;;;;;;;13.00;8.87;;;18.60;99.90;;;;;;4986330;28;20895;-90
2021/09/06 08:20:12;;;;;;;11.90;9.17;;;18.70;99.90;;;;;;4987623;28;20647;-90
2021/09/06 08:22:39;;;;;;;11.23;10.20;;;18.80;99.90;;;;;;4992594;28;20623;-91
2021/09/06 08:25:07;;;;;;;10.57;9.50;;;18.80;99.90;;;;;;4993431;28;21000;-89
2021/09/06 08:27:34;;;;;;;9.80;9.00;;;19.00;99.90;;;;;;4987591;28;20676;-89
2021/09/06 08:30:01;;;;;;;8.60;7.60;;;19.20;99.90;;;;;;4986586;28;20661;-89
2021/09/06 08:32:28;;;;;;;9.40;8.40;;;19.30;99.90;;;;;;4985923;28;20633;-89
2021/09/06 08:34:55;;;;;;;8.87;8.07;;;19.30;99.90;;;;;;4983510;28;20645;-90
2021/09/06 08:37:23;;;;;;;12.40;8.30;;;19.70;99.90;;;;;;4994058;28;20951;-89
2021/09/06 08:39:50;;;;;;;9.70;8.80;;;19.50;99.90;;;;;;4983839;28;21128;-89
2021/09/06 08:42:18;;;;;;;9.03;8.20;;;20.00;99.90;;;;;;4989282;28;20988;-90
2021/09/06 08:44:45;;;;;;;9.47;8.63;;;20.00;99.90;;;;;;4980892;28;20628;-89
2021/09/06 08:47:15;;;;;;;9.90;8.90;;;20.20;99.90;;;;;;4994219;28;20758;-89
2021/09/06 08:49:42;;;;;;;8.87;8.00;;;20.30;99.90;;;;;;4986210;28;20639;-88
2021/09/06 08:52:09;;;;;;;8.97;8.07;;;20.40;99.90;;;;;;4982432;28;20641;-88
2021/09/06 08:54:37;;;;;;;11.30;8.20;;;20.80;99.90;;;;;;4988628;28;20643;-89
2021/09/06 08:57:06;;;;;;;9.70;8.80;;;21.10;99.90;;;;;;4983799;28;20886;-90
2021/09/06 08:59:32;;;;;;;8.40;6.03;;;21.20;99.90;;;;;;4989884;28;20656;-89
2021/09/06 09:01:59;;;;;;;9.97;7.30;;;21.40;99.90;;;;;;4983639;28;20634;-88
2021/09/06 09:04:27;;;;;;;8.83;7.97;;;21.40;99.90;;;;;;4984636;28;20637;-88
2021/09/06 09:06:56;;;;;;;10.63;7.70;;;21.40;99.90;;;;;;4985446;28;20657;-88
2021/09/06 09:09:27;;;;;;;9.50;7.97;;;21.40;99.90;;;;;;4983274;28;20628;-87
2021/09/06 09:12:07;;;;;;;7.63;7.00;;;21.60;99.90;;;;;;4987653;28;20630;-87
2021/09/06 09:14:36;;;;;;;11.43;7.27;;;22.10;99.90;;;;;;4985923;28;20668;-89
2021/09/06 09:17:04;;;;;;;7.57;6.83;;;22.10;99.90;;;;;;4981978;28;20744;-89
2021/09/06 09:19:30;;;;;;;7.30;6.60;;;22.40;99.90;;;;;;4986369;28;20621;-87
2021/09/06 09:22:01;;;;;;;7.50;6.87;;;22.60;99.90;;;;;;4983986;28;20632;-88
2021/09/06 09:24:28;;;;;;;7.57;6.70;;;22.80;99.90;;;;;;4994728;28;21227;-89
2021/09/06 09:26:57;;;;;;;8.73;7.23;;;22.80;99.90;;;;;;4998068;28;20671;-90
2021/09/06 09:29:25;;;;;;;11.63;7.03;;;22.80;99.90;;;;;;4999599;28;20648;-87
2021/09/06 09:31:54;;;;;;;8.17;7.47;;;23.10;99.90;;;;;;4992008;28;20621;-87
2021/09/06 09:34:21;;;;;;;7.73;6.93;;;23.10;99.90;;;;;;4984558;28;20625;-87
2021/09/06 09:36:48;;;;;;;8.17;7.37;;;23.40;99.90;;;;;;4986189;28;20613;-87
2021/09/06 09:39:17;;;;;;;7.80;6.77;;;23.70;99.90;;;;;;4985606;28;20691;-89
2021/09/06 09:41:45;;;;;;;7.17;6.57;;;23.90;99.90;;;;;;4988504;28;20632;-89
2021/09/06 09:44:17;;;;;;;7.40;5.87;;;24.10;99.90;;;;;;4988048;28;20629;-89
2021/09/06 09:46:55;;;;;;;8.00;7.20;;;24.10;99.90;;;;;;4990626;28;21029;-88
2021/09/06 09:49:23;;;;;;;7.00;6.30;;;24.40;99.90;;;;;;4987797;28;20628;-88
2021/09/06 09:51:50;;;;;;;8.40;6.77;;;24.80;99.00;;;;;;4994746;28;20999;-88
2021/09/06 09:54:18;;;;;;;10.63;6.70;;;25.00;99.70;;;;;;4999033;28;20651;-88
2021/09/06 09:56:46;;;;;;;7.70;7.03;;;24.90;98.50;;;;;;4985337;28;20624;-89
2021/09/06 09:59:15;;;;;;;7.63;6.70;;;25.20;98.90;;;;;;4994490;28;20637;-88
2021/09/06 10:01:46;;;;;;;7.43;6.73;;;25.50;97.30;;;;;;4993805;28;20628;-88
2021/09/06 10:04:16;;;;;;;7.60;6.90;;;25.60;96.40;;;;;;4972657;28;20617;-88
2021/09/06 10:06:44;;;;;;;8.20;7.50;;;25.50;95.70;;;;;;4997421;28;20655;-89
2021/09/06 10:09:14;;;;;;;7.70;7.00;;;25.60;96.80;;;;;;5006975;28;20614;-89
2021/09/06 10:11:42;;;;;;;7.10;6.60;;;25.90;95.60;;;;;;5005149;28;20699;-88
2021/09/06 10:14:17;;;;;;;9.50;7.80;;;26.20;95.60;;;;;;5001308;28;21062;-88
2021/09/06 10:16:44;;;;;;;7.50;6.90;;;26.30;95.50;;;;;;4993333;28;20634;-89
2021/09/06 10:19:11;;;;;;;6.97;6.37;;;26.10;94.40;;;;;;4987165;28;20975;-90
2021/09/06 10:21:48;;;;;;;7.23;6.63;;;26.60;92.90;;;;;;4991006;28;20624;-89
2021/09/06 10:24:17;;;;;;;8.20;7.50;;;26.70;92.50;;;;;;4990596;28;20634;-89
2021/09/06 10:26:45;;;;;;;7.20;6.43;;;26.80;93.40;;;;;;4964424;28;20651;-90
2021/09/06 10:29:20;;;;;;;7.30;6.60;;;27.00;91.90;;;;;;4989590;28;20688;-89
2021/09/06 10:31:59;;;;;;;11.33;7.07;;;26.90;88.80;;;;;;4988188;28;20949;-89
2021/09/06 10:34:29;;;;;;;6.67;6.07;;;27.20;89.70;;;;;;4995906;28;20667;-89
2021/09/06 10:37:02;;;;;;;7.60;6.90;;;27.20;90.30;;;;;;5000648;28;20636;-89
2021/09/06 10:39:29;;;;;;;7.23;6.53;;;27.30;88.50;;;;;;5005263;28;20635;-89
2021/09/06 10:42:05;;;;;;;7.73;7.13;;;27.50;89.40;;;;;;4990459;28;20644;-89
2021/09/06 10:44:37;;;;;;;7.50;6.67;;;27.30;90.10;;;;;;4984631;28;21178;-89
2021/09/06 10:47:10;;;;;;;7.57;6.97;;;27.40;85.40;;;;;;4970335;28;20652;-89
2021/09/06 10:49:41;;;;;;;8.10;7.40;;;27.70;86.10;;;;;;4987626;28;20674;-89
2021/09/06 10:52:09;;;;;;;8.23;6.87;;;27.50;86.40;;;;;;4989762;28;21074;-89
2021/09/06 10:54:38;;;;;;;7.97;6.60;;;27.60;85.90;;;;;;4985278;28;20620;-90
2021/09/06 10:57:07;;;;;;;9.57;7.50;;;28.20;83.20;;;;;;4986624;28;20622;-89
2021/09/06 10:59:35;;;;;;;7.87;6.77;;;28.20;83.20;;;;;;4982614;28;20741;-89
2021/09/06 11:02:05;;;;;;;7.00;6.40;;;28.20;81.80;;;;;;4990670;28;20629;-91
2021/09/06 11:04:33;;;;;;;10.93;6.93;;;28.20;77.30;;;;;;4990257;28;20609;-91
2021/09/06 11:07:02;;;;;;;6.87;6.37;;;27.70;76.70;;;;;;4986758;28;20633;-90
2021/09/06 11:09:31;;;;;;;7.43;6.70;;;28.00;79.50;;;;;;4988493;28;21009;-89
2021/09/06 11:12:03;;;;;;;7.60;6.90;;;28.00;76.50;;;;;;4989477;28;20631;-90
2021/09/06 11:14:34;;;;;;;7.70;7.00;;;28.10;79.20;;;;;;4985937;28;20645;-90
2021/09/06 11:17:01;;;;;;;6.73;6.17;;;28.30;74.80;;;;;;4986163;28;20667;-90
2021/09/06 11:19:30;;;;;;;6.60;6.10;;;28.20;73.10;;;;;;4986583;28;20625;-92
2021/09/06 11:21:58;;;;;;;6.53;6.03;;;28.20;73.50;;;;;;4984907;28;20638;-90
2021/09/06 11:24:26;;;;;;;7.23;6.63;;;28.60;73.10;;;;;;4990651;28;20678;-89
2021/09/06 11:26:54;;;;;;;7.00;6.03;;;28.80;69.70;;;;;;4987431;28;21175;-89
2021/09/06 11:29:21;;;;;;;6.50;6.10;;;29.30;69.10;;;;;;4990827;28;20667;-89
2021/09/06 11:31:49;;;;;;;6.73;6.30;;;29.40;66.40;;;;;;4986044;28;20635;-89
2021/09/06 11:34:16;;;;;;;7.13;6.60;;;29.40;69.40;;;;;;4984150;28;21552;-89
2021/09/06 11:36:44;;;;;;;7.33;6.63;;;29.90;68.90;;;;;;4988659;28;21166;-90
2021/09/06 11:39:11;;;;;;;8.03;7.40;;;29.80;69.10;;;;;;4989080;28;21083;-89
2021/09/06 11:41:38;;;;;;;8.00;7.37;;;30.00;67.90;;;;;;4985756;28;20651;-89
2021/09/06 11:44:07;;;;;;;7.03;6.43;;;30.20;69.00;;;;;;4986521;28;20625;-90
2021/09/06 11:46:34;;;;;;;7.73;7.03;;;30.30;67.40;;;;;;4988563;28;20620;-90
2021/09/06 11:49:02;;;;;;;12.23;8.50;;;30.30;65.30;;;;;;4982564;28;20662;-90
2021/09/06 11:51:29;;;;;;;7.37;6.87;;;30.20;66.50;;;;;;4988938;28;20663;-89
2021/09/06 11:53:57;;;;;;;8.57;7.80;;;30.80;66.50;;;;;;4981401;28;20637;-90
2021/09/06 11:56:24;;;;;;;7.90;7.13;;;31.00;64.50;;;;;;4986821;28;20637;-90
2021/09/06 11:58:51;;;;;;;7.60;6.90;;;31.40;65.20;;;;;;4992853;28;20629;-90
2021/09/06 12:01:19;;;;;;;7.73;7.00;;;31.20;63.40;;;;;;4989650;28;21091;-90
2021/09/06 12:03:47;;;;;;;7.90;7.30;;;31.20;65.40;;;;;;4990594;28;20619;-90
2021/09/06 12:06:15;;;;;;;7.33;6.73;;;31.40;63.50;;;;;;4984182;28;20635;-90
2021/09/06 12:08:53;;;;;;;6.80;6.23;;;32.00;60.80;;;;;;4990063;28;20663;-90
2021/09/06 12:11:20;;;;;;;7.30;6.80;;;32.10;57.80;;;;;;4988887;28;20663;-90
2021/09/06 12:13:57;;;;;;;7.00;6.50;;;32.10;57.10;;;;;;4986726;28;20644;-89
2021/09/06 12:16:29;;;;;;;7.07;6.57;;;31.40;57.20;;;;;;4990678;28;20735;-89
2021/09/06 12:18:58;;;;;;;6.60;6.20;;;31.60;57.50;;;;;;4980496;28;20626;-89
2021/09/06 12:21:26;;;;;;;7.20;6.70;;;31.80;56.70;;;;;;4990036;28;20655;-90
2021/09/06 12:24:00;;;;;;;7.27;6.67;;;31.50;57.40;;;;;;4987579;28;20727;-89
2021/09/06 12:26:38;;;;;;;7.07;6.57;;;31.60;56.60;;;;;;4985357;28;20631;-90
2021/09/06 12:29:04;;;;;;;7.47;6.57;;;32.30;56.20;;;;;;4984409;28;20674;-90
2021/09/06 12:31:42;;;;;;;8.07;6.27;;;33.00;52.80;;;;;;4986171;28;21196;-90
2021/09/06 12:34:10;;;;;;;7.40;6.80;;;33.00;51.70;;;;;;4986373;28;20628;-91
2021/09/06 12:36:36;;;;;;;7.50;6.23;;;33.00;51.40;;;;;;4990069;28;21184;-90
2021/09/06 12:39:04;;;;;;;6.33;5.83;;;32.80;53.10;;;;;;4977865;28;20629;-90
2021/09/06 12:41:30;;;;;;;6.27;5.87;;;32.90;52.30;;;;;;4986697;28;20647;-90